KBHM/BHM METAR and TAF weather

Enter ICAO airport designator
Station Type Date Time Source
KBHM METAR 2019/11/18 08:53 UTC NOAA

KBHM 180853Z 12003KT 9SM CLR 02/01 A2990 RMK AO2 SLP125 T00220006 58008 $


Station Type Date Time Source
KBHM Decoded METAR 2019/11/18 08:53 UTC NOAA

BIRMINGHAM INT'L AIRPORT, AL, United States (KBHM) 33-34N 086-45W 197M
Nov 18, 2019 - 03:53 AM EST / 2019.11.18 0853 UTC
Wind: from the ESE (120 degrees) at 3 MPH (3 KT):0
Visibility: 9 mile(s):0
Sky conditions: clear
Temperature: 36.0 F (2.2 C)
Dew Point: 33.1 F (0.6 C)
Relative Humidity: 89%
Pressure (altimeter): 29.9 in. Hg (1012 hPa)
Pressure tendency: 0.02 inches (0.8 hPa) lower than three hours ago
ob: KBHM 180853Z 12003KT 9SM CLR 02/01 A2990 RMK AO2 SLP125 T00220006 58008
cycle: 9

Station Type Date Time Source
KBHM TAF 2019/11/18 06:22 UTC NOAA

TAF KBHM 180520Z 1806/1906 00000KT P6SM SCT080 SCT250
TEMPO 1808/1810 BKN080
FM181500 32005KT P6SM SCT120 SCT250
FM181900 29005KT P6SM BKN250

Example: see airport list